Time;durP1;ratioP1;P1;durP2;ratioP2;P2;SDS_P1;SDS_P2;PMS_P1;PMS_P2;Temp;Humidity;BMP_temperature;BMP_pressure;BME280_temperature;BME280_humidity;BME280_pressure;Samples;Min_cycle;Max_cycle;Signal;HPM_P1;HPM_P2
2021/12/20 00:02:09;;;;;;;26.87;12.73;;;;;;;;;;5100332;28;20527;-67
2021/12/20 00:04:37;;;;;;;27.33;12.90;;;;;;;;;;5100526;28;20471;-67
2021/12/20 00:07:05;;;;;;;32.33;13.10;;;;;;;;;;5103763;28;20474;-67
2021/12/20 00:09:33;;;;;;;34.20;11.40;;;;;;;;;;5108368;28;20578;-67
2021/12/20 00:12:03;;;;;;;28.10;12.13;;;;;;;;;;5109087;28;20434;-68
2021/12/20 00:14:31;;;;;;;25.77;11.00;;;;;;;;;;5110989;28;20443;-67
2021/12/20 00:16:59;;;;;;;28.27;13.07;;;;;;;;;;5097340;28;21013;-68
2021/12/20 00:19:27;;;;;;;29.77;12.40;;;;;;;;;;5098857;28;20458;-67
2021/12/20 00:21:55;;;;;;;25.27;11.43;;;;;;;;;;5098390;28;20542;-68
2021/12/20 00:24:27;;;;;;;25.23;10.43;;;;;;;;;;5095310;28;20839;-68
2021/12/20 00:26:55;;;;;;;27.67;11.13;;;;;;;;;;5098392;28;20440;-68
2021/12/20 00:29:25;;;;;;;32.07;12.83;;;;;;;;;;5099102;28;20475;-68
2021/12/20 00:31:53;;;;;;;30.03;11.80;;;;;;;;;;5098109;28;20431;-68
2021/12/20 00:34:21;;;;;;;29.13;12.87;;;;;;;;;;5098642;28;20471;-68
2021/12/20 00:36:57;;;;;;;30.30;12.63;;;;;;;;;;5097750;28;20522;-68
2021/12/20 00:42:10;;;;;;;34.17;14.23;;;;;;;;;;5096043;28;20515;-68
2021/12/20 00:44:40;;;;;;;33.80;12.27;;;;;;;;;;5098206;28;20534;-68
2021/12/20 00:47:08;;;;;;;27.13;11.20;;;;;;;;;;5095572;28;20935;-68
2021/12/20 00:49:36;;;;;;;23.70;10.57;;;;;;;;;;5102262;28;20555;-68
2021/12/20 00:52:04;;;;;;;22.50;10.17;;;;;;;;;;5100353;28;20436;-67
2021/12/20 00:54:32;;;;;;;26.90;11.60;;;;;;;;;;5097271;28;20869;-67
2021/12/20 00:57:00;;;;;;;30.03;12.20;;;;;;;;;;5095344;28;20459;-68
2021/12/20 00:59:28;;;;;;;27.70;12.80;;;;;;;;;;5096629;28;20526;-67
2021/12/20 01:01:58;;;;;;;25.70;10.90;;;;;;;;;;5095812;28;20531;-68
2021/12/20 01:04:26;;;;;;;30.03;13.57;;;;;;;;;;5095136;28;20454;-67
2021/12/20 01:06:54;;;;;;;34.47;15.37;;;;;;;;;;5096493;28;20467;-67
2021/12/20 01:09:22;;;;;;;29.03;12.27;;;;;;;;;;5097117;28;20570;-68
2021/12/20 01:11:53;;;;;;;29.23;14.63;;;;;;;;;;5097313;28;20453;-68
2021/12/20 01:14:24;;;;;;;34.30;13.83;;;;;;;;;;5096998;28;20442;-67
2021/12/20 01:16:54;;;;;;;31.87;13.57;;;;;;;;;;5098367;28;20442;-67
2021/12/20 01:19:25;;;;;;;30.43;14.47;;;;;;;;;;5094006;28;20462;-67
2021/12/20 01:21:53;;;;;;;22.57;11.33;;;;;;;;;;5096913;28;20867;-68
2021/12/20 01:24:21;;;;;;;26.10;12.77;;;;;;;;;;5097841;28;20518;-68
2021/12/20 01:26:49;;;;;;;27.00;12.90;;;;;;;;;;5097782;28;20475;-67
2021/12/20 01:29:17;;;;;;;25.53;11.53;;;;;;;;;;5096846;28;20492;-68
2021/12/20 01:31:45;;;;;;;33.43;13.17;;;;;;;;;;5093309;28;20435;-68
2021/12/20 01:34:13;;;;;;;28.20;11.87;;;;;;;;;;5095751;28;20444;-68
2021/12/20 01:36:42;;;;;;;28.40;13.23;;;;;;;;;;5095053;28;20435;-68
2021/12/20 01:39:11;;;;;;;30.40;10.63;;;;;;;;;;5095402;28;20488;-68
2021/12/20 01:41:39;;;;;;;26.47;12.27;;;;;;;;;;5095222;28;20439;-68
2021/12/20 01:44:07;;;;;;;27.07;11.13;;;;;;;;;;5095107;28;20539;-67
2021/12/20 01:46:36;;;;;;;27.80;11.47;;;;;;;;;;5094537;28;20442;-68
2021/12/20 01:49:07;;;;;;;23.13;11.10;;;;;;;;;;5097166;28;20567;-68
2021/12/20 01:51:48;;;;;;;21.77;10.80;;;;;;;;;;5091528;28;20432;-68
2021/12/20 01:54:18;;;;;;;22.67;9.33;;;;;;;;;;5094568;28;20455;-68
2021/12/20 01:56:46;;;;;;;28.40;12.87;;;;;;;;;;5097250;28;20463;-67
2021/12/20 01:59:14;;;;;;;24.90;11.83;;;;;;;;;;5096665;28;20534;-67
2021/12/20 02:01:44;;;;;;;31.30;12.63;;;;;;;;;;5097546;28;20442;-68
2021/12/20 02:04:13;;;;;;;24.90;11.70;;;;;;;;;;5096834;28;20491;-67
2021/12/20 02:06:46;;;;;;;23.87;10.93;;;;;;;;;;5096396;28;20471;-68
2021/12/20 02:09:15;;;;;;;24.87;11.83;;;;;;;;;;5096569;28;20912;-68
2021/12/20 02:11:45;;;;;;;29.47;11.27;;;;;;;;;;5097109;28;20431;-67
2021/12/20 02:14:14;;;;;;;27.73;12.37;;;;;;;;;;5095842;28;20446;-67
2021/12/20 02:16:42;;;;;;;27.03;11.97;;;;;;;;;;5104985;28;20431;-68
2021/12/20 02:19:11;;;;;;;25.33;11.80;;;;;;;;;;5107245;28;20533;-68
2021/12/20 02:21:41;;;;;;;22.50;10.63;;;;;;;;;;5100239;28;20470;-67
2021/12/20 02:24:09;;;;;;;22.53;10.07;;;;;;;;;;5097794;28;20994;-67
2021/12/20 02:26:37;;;;;;;25.87;10.67;;;;;;;;;;5097729;28;20444;-68
2021/12/20 02:29:08;;;;;;;22.67;11.10;;;;;;;;;;5097609;28;20562;-67
2021/12/20 02:37:27;;;;;;;19.23;10.60;;;;;;;;;;5097493;28;20886;-68
2021/12/20 02:39:56;;;;;;;22.50;9.23;;;;;;;;;;5097805;28;20466;-68
2021/12/20 02:42:29;;;;;;;21.80;10.43;;;;;;;;;;5097872;28;20530;-68
2021/12/20 02:47:43;;;;;;;24.07;11.60;;;;;;;;;;5097966;28;20448;-67
2021/12/20 02:50:12;;;;;;;26.03;11.97;;;;;;;;;;5101745;28;20483;-67
2021/12/20 02:52:41;;;;;;;26.57;11.90;;;;;;;;;;5101806;28;20530;-68
2021/12/20 02:55:10;;;;;;;31.23;12.03;;;;;;;;;;5102140;28;20447;-67
2021/12/20 02:57:39;;;;;;;23.87;11.77;;;;;;;;;;5101694;28;20439;-67
2021/12/20 03:00:08;;;;;;;22.30;11.00;;;;;;;;;;5101857;28;20531;-67
2021/12/20 03:02:36;;;;;;;21.20;10.67;;;;;;;;;;5111809;28;20517;-67
2021/12/20 03:05:05;;;;;;;27.03;12.00;;;;;;;;;;5104131;28;21352;-68
2021/12/20 03:07:41;;;;;;;26.47;11.53;;;;;;;;;;5101229;28;20546;-68
2021/12/20 03:10:11;;;;;;;27.00;12.13;;;;;;;;;;5101922;28;20489;-68
2021/12/20 03:12:39;;;;;;;31.57;12.93;;;;;;;;;;5101578;28;21067;-67
2021/12/20 03:15:12;;;;;;;35.13;13.50;;;;;;;;;;5101310;28;20882;-67
2021/12/20 03:17:40;;;;;;;28.50;11.77;;;;;;;;;;5101173;28;20535;-68
2021/12/20 03:20:09;;;;;;;26.07;12.50;;;;;;;;;;5101251;28;20508;-67
2021/12/20 03:22:37;;;;;;;25.30;12.20;;;;;;;;;;5101456;28;20445;-68
2021/12/20 03:25:05;;;;;;;28.23;11.57;;;;;;;;;;5101263;28;20527;-68
2021/12/20 03:27:35;;;;;;;30.80;11.97;;;;;;;;;;5101073;28;21033;-67
2021/12/20 03:30:04;;;;;;;29.70;13.07;;;;;;;;;;5101177;28;20479;-67
2021/12/20 03:32:32;;;;;;;22.53;11.43;;;;;;;;;;5101272;28;20506;-68
2021/12/20 03:35:00;;;;;;;29.77;13.70;;;;;;;;;;5101001;28;20515;-67
2021/12/20 03:37:28;;;;;;;25.90;12.97;;;;;;;;;;5101309;28;20530;-68
2021/12/20 03:39:56;;;;;;;31.30;12.30;;;;;;;;;;5101023;28;20500;-68
2021/12/20 03:42:26;;;;;;;27.53;13.80;;;;;;;;;;5100487;28;20546;-68
2021/12/20 03:44:56;;;;;;;26.30;13.17;;;;;;;;;;5101039;28;20526;-67
2021/12/20 03:47:24;;;;;;;35.27;13.67;;;;;;;;;;5100649;28;20439;-67
2021/12/20 03:49:52;;;;;;;29.17;13.77;;;;;;;;;;5100429;28;20585;-67
2021/12/20 03:52:20;;;;;;;29.33;13.23;;;;;;;;;;5100567;28;21019;-67
2021/12/20 03:54:48;;;;;;;30.63;12.93;;;;;;;;;;5100641;28;21022;-68
2021/12/20 03:57:16;;;;;;;28.87;12.80;;;;;;;;;;5100414;28;20451;-67
2021/12/20 03:59:47;;;;;;;33.37;13.53;;;;;;;;;;5100092;28;20542;-68
2021/12/20 04:02:19;;;;;;;34.60;12.83;;;;;;;;;;5107643;28;20517;-68
2021/12/20 04:04:47;;;;;;;32.57;14.30;;;;;;;;;;5105375;28;20447;-67
2021/12/20 04:07:15;;;;;;;31.37;13.27;;;;;;;;;;5100342;28;20474;-67
2021/12/20 04:09:43;;;;;;;32.90;13.23;;;;;;;;;;5100070;28;20842;-67
2021/12/20 04:12:12;;;;;;;30.10;14.17;;;;;;;;;;5099837;28;20927;-68
2021/12/20 04:14:40;;;;;;;32.63;12.87;;;;;;;;;;5100152;28;20526;-67
2021/12/20 04:17:08;;;;;;;29.77;13.20;;;;;;;;;;5100253;28;20518;-68
2021/12/20 04:19:37;;;;;;;38.27;16.13;;;;;;;;;;5100001;28;20547;-67
2021/12/20 04:22:05;;;;;;;36.07;15.83;;;;;;;;;;5099801;28;20985;-68
2021/12/20 04:24:34;;;;;;;34.70;13.60;;;;;;;;;;5100287;28;20443;-68
2021/12/20 04:27:02;;;;;;;31.73;15.13;;;;;;;;;;5100233;28;20942;-68
2021/12/20 04:29:30;;;;;;;32.93;13.43;;;;;;;;;;5099987;28;20463;-67
2021/12/20 04:31:59;;;;;;;28.63;11.83;;;;;;;;;;5100036;28;20440;-67
2021/12/20 04:34:27;;;;;;;26.77;13.23;;;;;;;;;;5099568;28;20881;-67
2021/12/20 04:37:11;;;;;;;28.93;12.27;;;;;;;;;;5099578;28;21001;-67
2021/12/20 04:39:39;;;;;;;32.60;12.70;;;;;;;;;;5099731;28;20905;-68
2021/12/20 04:42:08;;;;;;;23.63;12.33;;;;;;;;;;5099574;28;20444;-67
2021/12/20 04:44:36;;;;;;;33.33;12.87;;;;;;;;;;5100033;28;20521;-68
2021/12/20 04:47:05;;;;;;;26.00;12.10;;;;;;;;;;5099785;28;20471;-67
2021/12/20 04:49:33;;;;;;;31.77;12.93;;;;;;;;;;5099485;28;20467;-67
2021/12/20 04:52:01;;;;;;;25.23;12.27;;;;;;;;;;5099283;28;20485;-67
2021/12/20 04:54:31;;;;;;;27.13;12.77;;;;;;;;;;5099810;28;20448;-67
2021/12/20 04:56:59;;;;;;;31.63;12.70;;;;;;;;;;5099666;28;20443;-67
2021/12/20 04:59:27;;;;;;;29.17;13.13;;;;;;;;;;5099587;28;20471;-67
2021/12/20 05:01:56;;;;;;;25.53;12.07;;;;;;;;;;5103761;28;20442;-68
2021/12/20 05:04:24;;;;;;;27.30;12.10;;;;;;;;;;5108238;28;20443;-68
2021/12/20 05:06:52;;;;;;;24.10;10.07;;;;;;;;;;5098765;28;20533;-68
2021/12/20 05:09:20;;;;;;;21.57;11.17;;;;;;;;;;5104886;28;20458;-67
2021/12/20 05:11:57;;;;;;;23.57;11.97;;;;;;;;;;5103381;28;20490;-68
2021/12/20 05:14:25;;;;;;;24.27;11.47;;;;;;;;;;5104786;28;20439;-67
2021/12/20 05:16:53;;;;;;;22.83;10.13;;;;;;;;;;5098777;28;20442;-68
2021/12/20 05:19:21;;;;;;;22.60;11.13;;;;;;;;;;5099310;28;20545;-67
2021/12/20 05:21:49;;;;;;;19.90;9.83;;;;;;;;;;5097865;28;20432;-67
2021/12/20 05:24:18;;;;;;;22.03;10.53;;;;;;;;;;5098153;28;20428;-70
2021/12/20 05:26:46;;;;;;;19.57;10.30;;;;;;;;;;5092765;28;20457;-73
2021/12/20 05:29:16;;;;;;;20.43;10.13;;;;;;;;;;5092743;28;20467;-73
2021/12/20 05:31:44;;;;;;;18.90;9.60;;;;;;;;;;5093192;28;20480;-73
2021/12/20 05:34:12;;;;;;;16.17;8.07;;;;;;;;;;5096227;28;20811;-73
2021/12/20 05:36:39;;;;;;;17.50;8.87;;;;;;;;;;5090718;28;20800;-74
2021/12/20 05:39:07;;;;;;;19.47;9.57;;;;;;;;;;5088015;28;20496;-74
2021/12/20 05:41:35;;;;;;;15.73;8.80;;;;;;;;;;5090133;28;20428;-74
2021/12/20 05:44:03;;;;;;;18.33;10.27;;;;;;;;;;5093741;28;20479;-74
2021/12/20 05:46:32;;;;;;;17.20;8.90;;;;;;;;;;5095110;28;20432;-68
2021/12/20 05:49:00;;;;;;;18.67;10.50;;;;;;;;;;5097113;28;20909;-68
2021/12/20 05:51:28;;;;;;;16.17;7.70;;;;;;;;;;5096946;28;20490;-69
2021/12/20 05:53:56;;;;;;;18.97;8.60;;;;;;;;;;5097949;28;20447;-69
2021/12/20 05:56:23;;;;;;;17.03;8.93;;;;;;;;;;5108721;28;20958;-69
2021/12/20 05:58:51;;;;;;;18.97;9.27;;;;;;;;;;5101281;28;20467;-70
2021/12/20 06:01:19;;;;;;;19.40;9.53;;;;;;;;;;5098402;28;20471;-70
2021/12/20 06:03:48;;;;;;;20.23;9.30;;;;;;;;;;5097924;28;20428;-70
2021/12/20 06:06:16;;;;;;;19.00;10.57;;;;;;;;;;5108221;28;20482;-69
2021/12/20 06:08:43;;;;;;;17.17;9.63;;;;;;;;;;5099033;28;20494;-70
2021/12/20 06:11:11;;;;;;;25.97;9.67;;;;;;;;;;5097980;28;20920;-70
2021/12/20 06:13:39;;;;;;;15.33;8.23;;;;;;;;;;5097927;28;20483;-70
2021/12/20 06:16:06;;;;;;;19.40;8.87;;;;;;;;;;5097916;28;20455;-70
2021/12/20 06:18:34;;;;;;;20.33;9.13;;;;;;;;;;5098018;28;20509;-70
2021/12/20 06:21:03;;;;;;;18.77;8.87;;;;;;;;;;5102847;28;21022;-71
2021/12/20 06:23:31;;;;;;;20.77;9.83;;;;;;;;;;5104432;28;20800;-70
2021/12/20 06:25:58;;;;;;;22.20;9.13;;;;;;;;;;5098063;28;20444;-64
2021/12/20 06:28:26;;;;;;;23.30;8.77;;;;;;;;;;5096212;28;20471;-64
2021/12/20 06:30:54;;;;;;;19.80;9.20;;;;;;;;;;5094111;28;21004;-64
2021/12/20 06:33:21;;;;;;;17.63;9.03;;;;;;;;;;5096299;28;20432;-64
2021/12/20 06:35:49;;;;;;;17.30;8.53;;;;;;;;;;5096979;28;20439;-63
2021/12/20 06:38:20;;;;;;;19.90;8.67;;;;;;;;;;5095135;28;20467;-64
2021/12/20 06:40:49;;;;;;;17.67;7.60;;;;;;;;;;5096177;28;20470;-64
2021/12/20 06:43:16;;;;;;;17.90;9.47;;;;;;;;;;5097761;28;20443;-64
2021/12/20 06:45:44;;;;;;;18.20;8.50;;;;;;;;;;5097260;28;20496;-64
2021/12/20 06:48:12;;;;;;;16.77;7.97;;;;;;;;;;5097213;28;20520;-64
2021/12/20 06:50:39;;;;;;;19.63;8.40;;;;;;;;;;5096082;28;20497;-64
2021/12/20 06:53:07;;;;;;;15.83;7.93;;;;;;;;;;5097310;28;20479;-64
2021/12/20 06:55:36;;;;;;;18.63;8.03;;;;;;;;;;5097278;28;20478;-64
2021/12/20 06:58:05;;;;;;;16.23;7.07;;;;;;;;;;5096052;28;20471;-64
2021/12/20 07:00:33;;;;;;;21.73;8.10;;;;;;;;;;5096902;28;20796;-63
2021/12/20 07:03:01;;;;;;;17.27;7.63;;;;;;;;;;5096990;28;20464;-64
2021/12/20 07:05:29;;;;;;;18.93;7.13;;;;;;;;;;5096134;28;20436;-66
2021/12/20 07:07:56;;;;;;;16.63;7.67;;;;;;;;;;5096208;28;20498;-66
2021/12/20 07:10:24;;;;;;;14.80;8.20;;;;;;;;;;5096547;28;20463;-65
2021/12/20 07:12:56;;;;;;;19.33;8.77;;;;;;;;;;5095238;28;20565;-66
2021/12/20 07:15:25;;;;;;;17.70;7.80;;;;;;;;;;5096991;28;20443;-66
2021/12/20 07:17:52;;;;;;;12.87;7.03;;;;;;;;;;5096940;28;20799;-66
2021/12/20 07:20:20;;;;;;;15.23;7.40;;;;;;;;;;5095283;28;20436;-67
2021/12/20 07:22:48;;;;;;;16.33;6.67;;;;;;;;;;5106125;28;20451;-67
2021/12/20 07:25:16;;;;;;;13.97;6.63;;;;;;;;;;5105929;28;20435;-67
2021/12/20 07:27:44;;;;;;;14.10;6.43;;;;;;;;;;5102458;28;20455;-67
2021/12/20 07:30:13;;;;;;;13.77;5.83;;;;;;;;;;5105723;28;20488;-67
2021/12/20 07:32:41;;;;;;;12.70;6.77;;;;;;;;;;5106679;28;20523;-66
2021/12/20 07:35:09;;;;;;;12.73;6.97;;;;;;;;;;5106711;28;20492;-66
2021/12/20 07:37:37;;;;;;;18.33;8.40;;;;;;;;;;5106648;28;20435;-66
2021/12/20 07:40:07;;;;;;;16.43;7.47;;;;;;;;;;5110353;28;20458;-66
2021/12/20 07:42:35;;;;;;;14.80;7.90;;;;;;;;;;5110955;28;20501;-66
2021/12/20 07:45:03;;;;;;;15.07;7.33;;;;;;;;;;5107467;28;20431;-66
2021/12/20 07:47:47;;;;;;;15.20;8.50;;;;;;;;;;5107945;28;20458;-66
2021/12/20 07:50:15;;;;;;;14.83;7.47;;;;;;;;;;5107752;28;20522;-65
2021/12/20 07:52:43;;;;;;;14.40;7.30;;;;;;;;;;5110512;28;20478;-65
2021/12/20 07:55:11;;;;;;;19.27;8.57;;;;;;;;;;5109678;28;20431;-65
2021/12/20 07:57:38;;;;;;;15.57;7.60;;;;;;;;;;5109437;28;20435;-65
2021/12/20 08:00:07;;;;;;;19.97;8.37;;;;;;;;;;5106062;28;20435;-70
2021/12/20 08:02:35;;;;;;;19.13;7.23;;;;;;;;;;5107888;28;20529;-68
2021/12/20 08:05:04;;;;;;;15.93;7.07;;;;;;;;;;5106938;28;20442;-68
2021/12/20 08:07:32;;;;;;;13.37;7.17;;;;;;;;;;5104242;28;20474;-68
2021/12/20 08:10:00;;;;;;;13.57;6.90;;;;;;;;;;5106779;28;20459;-67
2021/12/20 08:12:27;;;;;;;12.57;7.00;;;;;;;;;;5099497;28;20521;-67
2021/12/20 08:14:55;;;;;;;16.17;7.20;;;;;;;;;;5100031;28;20803;-66
2021/12/20 08:17:23;;;;;;;15.50;7.17;;;;;;;;;;5100021;28;20471;-66
2021/12/20 08:19:51;;;;;;;13.20;6.53;;;;;;;;;;5099741;28;20499;-66
2021/12/20 08:22:24;;;;;;;10.40;5.50;;;;;;;;;;5108892;28;20470;-72
2021/12/20 08:24:51;;;;;;;8.83;5.63;;;;;;;;;;5105597;28;20496;-68
2021/12/20 08:27:19;;;;;;;11.70;7.37;;;;;;;;;;5109566;28;20943;-67
2021/12/20 08:29:47;;;;;;;9.70;4.87;;;;;;;;;;5107751;28;20451;-66
2021/12/20 08:32:15;;;;;;;10.33;5.33;;;;;;;;;;5108508;28;20827;-67
2021/12/20 08:34:42;;;;;;;10.67;5.77;;;;;;;;;;5108128;28;20471;-67
2021/12/20 08:37:10;;;;;;;7.77;4.43;;;;;;;;;;5103955;28;20444;-67
2021/12/20 08:39:39;;;;;;;11.30;5.20;;;;;;;;;;5102696;28;20510;-67
2021/12/20 08:42:07;;;;;;;9.53;5.87;;;;;;;;;;5103259;28;20471;-69
2021/12/20 08:44:35;;;;;;;9.77;5.03;;;;;;;;;;5109723;28;20828;-67
2021/12/20 08:47:03;;;;;;;10.50;4.83;;;;;;;;;;5101461;28;20823;-69
2021/12/20 08:49:31;;;;;;;8.13;4.97;;;;;;;;;;5098955;28;20471;-69
2021/12/20 08:52:00;;;;;;;7.57;4.83;;;;;;;;;;5099052;28;20464;-69
2021/12/20 08:54:29;;;;;;;8.07;4.37;;;;;;;;;;5106499;28;20931;-67
2021/12/20 08:56:58;;;;;;;9.10;5.30;;;;;;;;;;5107147;28;20483;-68
2021/12/20 08:59:26;;;;;;;7.07;4.73;;;;;;;;;;5108752;28;20484;-68
2021/12/20 09:01:53;;;;;;;6.40;3.80;;;;;;;;;;5108456;28;20900;-67
2021/12/20 09:04:21;;;;;;;6.17;4.73;;;;;;;;;;5106258;28;20437;-68
2021/12/20 09:06:49;;;;;;;5.60;4.00;;;;;;;;;;5106684;28;20471;-68
2021/12/20 09:09:17;;;;;;;6.23;4.63;;;;;;;;;;5106599;28;20485;-67
2021/12/20 09:11:45;;;;;;;6.27;3.63;;;;;;;;;;5098884;28;20443;-68
2021/12/20 09:14:14;;;;;;;4.97;3.40;;;;;;;;;;5090399;28;20513;-69
2021/12/20 09:16:42;;;;;;;6.03;3.30;;;;;;;;;;5096728;28;20498;-68
2021/12/20 09:19:10;;;;;;;5.43;4.43;;;;;;;;;;5096890;28;20464;-69
2021/12/20 09:21:38;;;;;;;5.83;3.63;;;;;;;;;;5102078;28;21130;-70
2021/12/20 09:24:08;;;;;;;6.33;4.23;;;;;;;;;;5104318;28;20541;-70
2021/12/20 09:26:36;;;;;;;5.77;3.37;;;;;;;;;;5104182;28;20937;-70
2021/12/20 09:29:04;;;;;;;9.40;4.00;;;;;;;;;;5100014;28;20498;-70
2021/12/20 09:31:33;;;;;;;4.03;3.73;;;;;;;;;;5102058;28;20444;-69
2021/12/20 09:34:01;;;;;;;7.80;4.10;;;;;;;;;;5105898;28;20483;-70
2021/12/20 09:36:29;;;;;;;6.43;4.23;;;;;;;;;;5101697;28;20448;-70
2021/12/20 09:38:57;;;;;;;7.27;4.27;;;;;;;;;;5108163;28;20460;-70
2021/12/20 09:44:11;;;;;;;7.40;3.70;;;;;;;;;;5104806;28;20836;-69
2021/12/20 09:46:41;;;;;;;5.67;4.20;;;;;;;;;;5100808;28;20448;-70
2021/12/20 09:49:09;;;;;;;7.80;4.10;;;;;;;;;;5096502;28;21043;-70
2021/12/20 09:51:37;;;;;;;5.73;3.80;;;;;;;;;;5101759;28;20501;-70
2021/12/20 09:54:06;;;;;;;10.43;5.30;;;;;;;;;;5107090;28;20479;-70
2021/12/20 09:56:36;;;;;;;5.57;4.37;;;;;;;;;;5109328;28;20439;-70
2021/12/20 09:59:06;;;;;;;7.27;5.17;;;;;;;;;;5098293;28;20550;-69
2021/12/20 10:01:34;;;;;;;13.10;5.40;;;;;;;;;;5096996;28;20440;-70
2021/12/20 10:04:04;;;;;;;10.07;4.20;;;;;;;;;;5097863;28;20456;-70
2021/12/20 10:06:33;;;;;;;7.77;5.10;;;;;;;;;;5096660;28;20978;-70
2021/12/20 10:09:10;;;;;;;5.57;3.63;;;;;;;;;;5098789;28;20472;-70
2021/12/20 10:11:38;;;;;;;4.80;3.57;;;;;;;;;;5098300;28;20435;-70
2021/12/20 10:14:07;;;;;;;7.00;4.13;;;;;;;;;;5098277;28;20487;-75
2021/12/20 10:16:36;;;;;;;4.73;3.70;;;;;;;;;;5097606;28;20454;-75
2021/12/20 10:19:09;;;;;;;5.43;3.67;;;;;;;;;;5091561;28;20482;-75
2021/12/20 10:21:37;;;;;;;6.33;4.20;;;;;;;;;;5105763;28;20447;-69
2021/12/20 10:24:05;;;;;;;5.80;3.93;;;;;;;;;;5104850;28;20442;-69
2021/12/20 10:26:40;;;;;;;8.50;4.20;;;;;;;;;;5105806;28;20443;-68
2021/12/20 10:29:17;;;;;;;6.57;3.87;;;;;;;;;;5098105;28;20467;-68
2021/12/20 10:31:45;;;;;;;5.90;4.10;;;;;;;;;;5094453;28;20474;-67
2021/12/20 10:34:14;;;;;;;5.37;4.10;;;;;;;;;;5095508;28;20483;-67
2021/12/20 10:36:52;;;;;;;6.93;4.40;;;;;;;;;;5095760;28;20432;-67
2021/12/20 10:39:32;;;;;;;7.13;3.93;;;;;;;;;;5095831;28;20494;-66
2021/12/20 10:42:12;;;;;;;6.83;3.90;;;;;;;;;;5092395;28;20447;-66
2021/12/20 10:44:40;;;;;;;8.03;5.23;;;;;;;;;;5091775;28;20504;-67
2021/12/20 10:47:08;;;;;;;8.40;4.17;;;;;;;;;;5098074;28;20431;-67
2021/12/20 10:49:38;;;;;;;7.27;5.10;;;;;;;;;;5101397;28;20509;-67
2021/12/20 10:52:09;;;;;;;9.47;4.30;;;;;;;;;;5102175;28;21000;-68
2021/12/20 10:54:43;;;;;;;6.53;4.37;;;;;;;;;;5096726;28;21043;-67
2021/12/20 10:57:25;;;;;;;7.77;4.43;;;;;;;;;;5097452;28;20468;-70
2021/12/20 10:59:53;;;;;;;6.07;3.60;;;;;;;;;;5094253;28;20482;-67
2021/12/20 11:05:23;;;;;;;5.20;3.93;;;;;;;;;;5089186;28;20459;-66
2021/12/20 11:10:44;;;;;;;9.53;5.50;;;;;;;;;;5058092;28;20885;-66
2021/12/20 11:13:15;;;;;;;6.10;4.50;;;;;;;;;;5091090;28;20816;-66
2021/12/20 11:15:43;;;;;;;7.93;5.47;;;;;;;;;;5091295;28;20457;-65
2021/12/20 11:18:19;;;;;;;8.23;4.83;;;;;;;;;;5096789;28;20455;-65
2021/12/20 11:20:48;;;;;;;7.97;4.77;;;;;;;;;;5100795;28;20493;-65
2021/12/20 11:23:25;;;;;;;8.93;4.83;;;;;;;;;;5100991;28;20440;-66
2021/12/20 11:25:54;;;;;;;8.37;4.93;;;;;;;;;;5090008;28;21273;-66
2021/12/20 11:28:22;;;;;;;8.80;4.97;;;;;;;;;;5100294;28;20516;-66
2021/12/20 11:30:49;;;;;;;11.50;4.80;;;;;;;;;;5098445;28;20930;-66
2021/12/20 11:33:17;;;;;;;6.27;4.40;;;;;;;;;;5098598;28;20463;-67
2021/12/20 11:35:45;;;;;;;5.43;4.60;;;;;;;;;;5091411;28;20927;-68
2021/12/20 11:38:14;;;;;;;6.23;4.53;;;;;;;;;;5100846;28;20463;-69
2021/12/20 11:40:47;;;;;;;6.27;4.43;;;;;;;;;;5100469;28;20580;-67
2021/12/20 11:43:14;;;;;;;9.27;4.50;;;;;;;;;;5100961;28;20447;-66
2021/12/20 11:48:46;;;;;;;10.00;5.07;;;;;;;;;;5093595;28;21006;-65
2021/12/20 11:51:23;;;;;;;8.83;4.70;;;;;;;;;;5100434;28;20443;-66
2021/12/20 11:53:52;;;;;;;7.37;4.87;;;;;;;;;;5098881;28;20534;-66
2021/12/20 11:56:38;;;;;;;7.53;4.30;;;;;;;;;;5089893;28;20443;-66
2021/12/20 11:59:09;;;;;;;8.73;4.50;;;;;;;;;;5100235;28;20478;-66
2021/12/20 12:01:37;;;;;;;11.53;5.70;;;;;;;;;;5104083;28;20435;-66
2021/12/20 12:04:04;;;;;;;9.23;5.67;;;;;;;;;;5095725;28;20473;-67
2021/12/20 12:06:33;;;;;;;9.27;5.83;;;;;;;;;;5087978;28;20531;-64
2021/12/20 12:09:02;;;;;;;9.03;5.47;;;;;;;;;;5108690;28;20958;-64
2021/12/20 12:11:50;;;;;;;12.60;6.13;;;;;;;;;;5086355;28;20466;-64
2021/12/20 12:14:35;;;;;;;8.93;5.20;;;;;;;;;;5095717;28;20511;-64
2021/12/20 12:17:05;;;;;;;9.50;5.20;;;;;;;;;;5089709;28;20478;-64
2021/12/20 12:19:38;;;;;;;8.63;4.97;;;;;;;;;;5099875;28;20538;-64
2021/12/20 12:22:31;;;;;;;7.67;5.00;;;;;;;;;;5098654;28;20512;-63
2021/12/20 12:25:01;;;;;;;8.43;5.17;;;;;;;;;;5105671;28;20467;-66
2021/12/20 12:27:29;;;;;;;8.27;5.40;;;;;;;;;;5103468;28;20476;-65
2021/12/20 12:30:16;;;;;;;11.83;6.03;;;;;;;;;;5102227;28;20482;-70
2021/12/20 12:32:58;;;;;;;7.97;5.13;;;;;;;;;;5105946;28;20468;-70
2021/12/20 12:35:47;;;;;;;8.37;5.07;;;;;;;;;;5095963;27;20879;-70
2021/12/20 12:38:16;;;;;;;7.70;4.40;;;;;;;;;;5096768;28;20472;-70
2021/12/20 12:40:49;;;;;;;7.73;4.70;;;;;;;;;;5097701;28;20526;-70
2021/12/20 12:43:17;;;;;;;7.93;4.50;;;;;;;;;;5095918;28;20836;-70
2021/12/20 12:45:48;;;;;;;9.40;4.70;;;;;;;;;;5095887;28;20508;-70
2021/12/20 12:48:38;;;;;;;7.07;4.60;;;;;;;;;;5099719;28;20494;-70
2021/12/20 12:51:07;;;;;;;10.80;4.90;;;;;;;;;;5098961;28;20452;-69
2021/12/20 12:53:39;;;;;;;6.50;4.13;;;;;;;;;;5099732;28;20455;-70
2021/12/20 12:56:22;;;;;;;7.90;5.07;;;;;;;;;;5098068;28;20494;-69
2021/12/20 12:59:20;;;;;;;7.33;5.40;;;;;;;;;;5095604;28;20471;-68
2021/12/20 13:01:49;;;;;;;8.10;4.80;;;;;;;;;;5107383;28;20538;-68
2021/12/20 13:04:17;;;;;;;8.60;4.40;;;;;;;;;;5102757;28;20463;-68
2021/12/20 13:06:45;;;;;;;5.83;3.83;;;;;;;;;;5104782;28;20883;-68
2021/12/20 13:09:13;;;;;;;6.17;4.13;;;;;;;;;;5097164;28;20475;-68
2021/12/20 13:11:41;;;;;;;8.43;4.70;;;;;;;;;;5099367;28;20926;-67
2021/12/20 13:14:14;;;;;;;8.43;5.23;;;;;;;;;;5089518;28;20453;-67
2021/12/20 13:16:51;;;;;;;10.30;6.17;;;;;;;;;;5096095;28;20836;-68
2021/12/20 13:19:27;;;;;;;11.27;5.87;;;;;;;;;;5103622;28;20490;-67
2021/12/20 13:21:59;;;;;;;10.70;5.53;;;;;;;;;;5096525;28;20455;-68
2021/12/20 13:24:28;;;;;;;10.50;5.47;;;;;;;;;;5094341;28;20443;-67
2021/12/20 13:27:03;;;;;;;9.87;5.07;;;;;;;;;;5094043;28;20455;-68
2021/12/20 13:29:32;;;;;;;9.27;5.70;;;;;;;;;;5084632;28;20479;-68
2021/12/20 13:32:06;;;;;;;9.00;4.83;;;;;;;;;;5079679;28;20445;-68
2021/12/20 13:34:34;;;;;;;10.93;5.27;;;;;;;;;;5081283;28;20524;-68
2021/12/20 13:37:04;;;;;;;9.87;6.27;;;;;;;;;;5081988;28;20433;-69
2021/12/20 13:39:32;;;;;;;10.53;6.43;;;;;;;;;;5086743;28;20493;-68
2021/12/20 13:42:04;;;;;;;11.97;7.10;;;;;;;;;;5086617;28;20516;-68
2021/12/20 13:44:34;;;;;;;11.17;6.93;;;;;;;;;;5096793;28;20447;-68
2021/12/20 13:47:04;;;;;;;10.03;5.73;;;;;;;;;;5094645;28;20459;-68
2021/12/20 13:49:32;;;;;;;12.67;7.00;;;;;;;;;;5094565;28;20543;-68
2021/12/20 13:52:02;;;;;;;13.23;7.23;;;;;;;;;;5095485;28;20509;-68
2021/12/20 13:54:32;;;;;;;9.10;6.13;;;;;;;;;;5096229;28;20497;-68
2021/12/20 13:57:02;;;;;;;8.47;6.20;;;;;;;;;;5096923;28;20451;-67
2021/12/20 13:59:32;;;;;;;12.33;6.53;;;;;;;;;;5097059;28;20471;-67
2021/12/20 14:02:02;;;;;;;9.53;5.70;;;;;;;;;;5098379;28;20483;-68
2021/12/20 14:04:31;;;;;;;8.20;5.03;;;;;;;;;;5096295;28;20511;-67
2021/12/20 14:07:00;;;;;;;10.97;6.67;;;;;;;;;;5096503;28;20532;-65
2021/12/20 14:09:36;;;;;;;8.77;5.47;;;;;;;;;;5097673;28;21016;-67
2021/12/20 14:12:11;;;;;;;10.13;6.23;;;;;;;;;;5095676;28;20466;-68
2021/12/20 14:14:54;;;;;;;10.77;6.30;;;;;;;;;;5104164;28;20445;-69
2021/12/20 14:17:23;;;;;;;10.20;5.83;;;;;;;;;;5104186;28;20490;-69
2021/12/20 14:20:03;;;;;;;11.20;7.00;;;;;;;;;;5100332;28;20455;-69
2021/12/20 14:22:31;;;;;;;11.23;7.10;;;;;;;;;;5104166;28;20463;-69
2021/12/20 14:25:00;;;;;;;11.63;6.70;;;;;;;;;;5099411;28;20488;-69
2021/12/20 14:27:27;;;;;;;13.27;7.00;;;;;;;;;;5104740;28;20491;-69
2021/12/20 14:30:02;;;;;;;10.77;6.73;;;;;;;;;;5106816;28;21113;-69
2021/12/20 14:32:42;;;;;;;11.30;7.20;;;;;;;;;;5105550;28;20816;-69
2021/12/20 14:35:31;;;;;;;14.43;7.00;;;;;;;;;;5103503;28;20804;-70
2021/12/20 14:38:27;;;;;;;9.07;5.97;;;;;;;;;;5106245;28;20833;-69
2021/12/20 14:41:11;;;;;;;10.50;6.97;;;;;;;;;;5105384;28;20444;-69
2021/12/20 14:43:49;;;;;;;11.53;6.97;;;;;;;;;;5103503;28;20938;-69
2021/12/20 14:46:27;;;;;;;10.17;6.23;;;;;;;;;;5097691;28;20504;-69
2021/12/20 14:49:02;;;;;;;9.27;6.00;;;;;;;;;;5104990;28;20459;-69
2021/12/20 14:51:32;;;;;;;9.60;6.43;;;;;;;;;;5104843;28;20515;-69
2021/12/20 14:54:10;;;;;;;10.77;8.10;;;;;;;;;;5103773;28;20451;-68
2021/12/20 14:56:38;;;;;;;12.83;7.53;;;;;;;;;;5103288;28;20532;-69
2021/12/20 14:59:06;;;;;;;11.93;7.07;;;;;;;;;;5101410;28;20471;-69
2021/12/20 15:01:33;;;;;;;11.93;6.60;;;;;;;;;;5104072;28;20931;-68
2021/12/20 15:04:03;;;;;;;12.03;8.40;;;;;;;;;;5114689;28;20809;-70
2021/12/20 15:06:38;;;;;;;14.47;8.03;;;;;;;;;;5101350;28;20531;-69
2021/12/20 15:09:06;;;;;;;12.20;7.43;;;;;;;;;;5105990;28;20988;-70